Time;durP1;ratioP1;P1;durP2;ratioP2;P2;SDS_P1;SDS_P2;PMS_P1;PMS_P2;Temp;Humidity;BMP_temperature;BMP_pressure;BME280_temperature;BME280_humidity;BME280_pressure;Samples;Min_cycle;Max_cycle;Signal;HPM_P1;HPM_P2
2022/08/03 00:01:57;;;;;;;7.05;1.60;;;21.30;99.90;;;;;;5013157;28;20069;-48
2022/08/03 00:04:23;;;;;;;8.23;1.52;;;21.20;99.90;;;;;;5013236;28;20049;-51
2022/08/03 00:06:49;;;;;;;6.95;1.77;;;21.20;99.90;;;;;;5013213;28;20480;-48
2022/08/03 00:09:14;;;;;;;7.63;1.40;;;21.20;99.90;;;;;;5013085;28;20034;-53
2022/08/03 00:11:40;;;;;;;8.48;1.50;;;21.10;99.90;;;;;;5012732;28;20487;-53
2022/08/03 00:14:06;;;;;;;7.30;1.90;;;21.00;99.90;;;;;;4994687;28;20042;-50
2022/08/03 00:16:32;;;;;;;5.28;1.70;;;21.00;99.90;;;;;;5013647;28;20125;-52
2022/08/03 00:18:58;;;;;;;8.90;1.77;;;21.00;99.90;;;;;;5012662;28;20050;-50
2022/08/03 00:21:24;;;;;;;6.82;1.58;;;21.00;99.90;;;;;;5013425;28;20053;-53
2022/08/03 00:23:49;;;;;;;8.02;1.70;;;21.00;99.90;;;;;;5013190;28;20062;-53
2022/08/03 00:26:15;;;;;;;8.48;1.95;;;20.90;99.90;;;;;;5013581;28;20092;-48
2022/08/03 00:28:41;;;;;;;9.60;1.73;;;20.90;99.90;;;;;;5013611;28;20026;-50
2022/08/03 00:31:06;;;;;;;7.68;1.70;;;20.90;99.90;;;;;;4992642;28;20114;-51
2022/08/03 00:33:32;;;;;;;7.32;1.70;;;20.80;99.90;;;;;;4993890;28;20048;-52
2022/08/03 00:35:58;;;;;;;6.63;1.63;;;20.80;99.90;;;;;;4975967;28;20042;-52
2022/08/03 00:38:24;;;;;;;6.57;1.52;;;20.80;99.90;;;;;;4993569;28;20038;-50
2022/08/03 00:40:49;;;;;;;6.40;1.73;;;20.80;99.90;;;;;;4993615;28;20219;-50
2022/08/03 00:43:15;;;;;;;9.52;1.60;;;20.80;99.90;;;;;;4993399;28;20489;-52
2022/08/03 00:45:42;;;;;;;7.47;1.98;;;20.70;99.90;;;;;;5011521;28;20045;-50
2022/08/03 00:48:10;;;;;;;6.18;1.63;;;20.70;99.90;;;;;;5012766;28;20076;-52
2022/08/03 00:50:39;;;;;;;6.72;1.75;;;20.70;99.90;;;;;;5011630;28;20041;-52
2022/08/03 00:53:06;;;;;;;5.43;1.50;;;20.70;99.90;;;;;;5012657;28;20060;-53
2022/08/03 00:55:33;;;;;;;7.55;2.00;;;20.60;99.90;;;;;;5012649;28;20497;-51
2022/08/03 00:58:00;;;;;;;11.25;2.25;;;20.50;99.90;;;;;;5012915;28;20406;-49
2022/08/03 01:00:27;;;;;;;6.45;1.80;;;20.60;99.90;;;;;;4992189;28;20112;-50
2022/08/03 01:02:53;;;;;;;9.43;1.70;;;20.50;99.90;;;;;;5008551;28;20405;-53
2022/08/03 01:05:20;;;;;;;6.78;1.88;;;20.40;99.90;;;;;;5012419;28;20048;-51
2022/08/03 01:07:52;;;;;;;6.47;1.80;;;20.50;99.90;;;;;;5012794;28;20056;-54
2022/08/03 01:10:52;;;;;;;7.40;2.03;;;20.40;99.90;;;;;;5012495;28;20041;-48
2022/08/03 01:13:28;;;;;;;6.63;1.98;;;20.40;99.90;;;;;;5012582;28;20034;-53
2022/08/03 01:16:13;;;;;;;6.97;2.30;;;20.30;99.90;;;;;;5011095;28;20054;-50
2022/08/03 01:19:21;;;;;;;7.50;1.90;;;20.20;99.90;;;;;;5011218;28;20947;-49
2022/08/03 01:21:56;;;;;;;7.07;2.00;;;20.30;99.90;;;;;;4978626;28;20137;-54
2022/08/03 01:24:53;;;;;;;6.00;2.05;;;20.20;99.90;;;;;;5011703;28;20355;-50
2022/08/03 01:27:25;;;;;;;5.72;1.77;;;20.20;99.90;;;;;;4975168;28;20049;-49
2022/08/03 01:29:58;;;;;;;5.75;1.88;;;20.20;99.90;;;;;;4992869;28;20125;-52
2022/08/03 01:32:32;;;;;;;5.97;2.00;;;20.20;99.90;;;;;;4992470;28;20046;-50
2022/08/03 01:35:04;;;;;;;6.65;2.10;;;20.20;99.90;;;;;;4992751;28;20038;-50
2022/08/03 01:37:59;;;;;;;7.65;2.05;;;20.10;99.90;;;;;;5010738;28;20050;-52
2022/08/03 01:40:26;;;;;;;8.40;2.42;;;20.10;99.90;;;;;;5010208;28;20061;-54
2022/08/03 01:42:56;;;;;;;6.93;2.05;;;20.00;99.90;;;;;;4993658;28;20049;-50
2022/08/03 01:45:23;;;;;;;5.70;2.22;;;20.00;99.90;;;;;;5010530;28;20113;-51
2022/08/03 01:47:51;;;;;;;9.00;2.38;;;20.10;99.90;;;;;;5011447;28;20049;-52
2022/08/03 01:50:23;;;;;;;10.40;2.22;;;20.00;99.90;;;;;;4976215;28;20477;-51
2022/08/03 01:52:50;;;;;;;6.45;1.90;;;20.00;99.90;;;;;;4992056;28;20034;-53
2022/08/03 01:55:18;;;;;;;6.47;2.08;;;20.00;99.90;;;;;;4992220;28;20030;-49
2022/08/03 01:57:45;;;;;;;6.28;2.20;;;19.90;99.90;;;;;;5009193;28;20060;-49
2022/08/03 02:00:12;;;;;;;8.50;2.17;;;19.80;99.90;;;;;;4993318;28;20124;-47
2022/08/03 02:02:39;;;;;;;7.47;1.88;;;19.80;99.90;;;;;;5011067;28;20045;-51
2022/08/03 02:05:07;;;;;;;8.10;2.00;;;19.70;99.90;;;;;;5010971;28;20080;-49
2022/08/03 02:07:33;;;;;;;6.28;1.85;;;19.70;99.90;;;;;;5010551;28;20045;-48
2022/08/03 02:10:01;;;;;;;7.28;2.10;;;19.70;99.90;;;;;;5010814;28;20037;-53
2022/08/03 02:12:31;;;;;;;7.40;2.17;;;19.60;99.90;;;;;;5010456;28;20096;-52
2022/08/03 02:14:59;;;;;;;5.55;2.00;;;19.50;99.90;;;;;;5010629;28;20131;-54
2022/08/03 02:17:26;;;;;;;7.85;2.00;;;19.50;99.90;;;;;;4992268;28;20057;-46
2022/08/03 02:19:55;;;;;;;6.82;1.80;;;19.50;99.90;;;;;;4993140;28;20486;-53
2022/08/03 02:22:23;;;;;;;6.97;2.13;;;19.50;99.90;;;;;;5010675;28;20069;-53
2022/08/03 02:24:49;;;;;;;8.07;2.38;;;19.50;99.90;;;;;;5009466;28;20029;-51
2022/08/03 02:27:24;;;;;;;9.43;2.13;;;19.50;99.90;;;;;;5010777;28;20026;-54
2022/08/03 02:29:59;;;;;;;6.45;1.98;;;19.40;99.90;;;;;;5010689;28;20453;-52
2022/08/03 02:32:30;;;;;;;6.03;1.63;;;19.30;99.90;;;;;;5009545;28;20116;-52
2022/08/03 02:34:58;;;;;;;5.90;1.73;;;19.40;99.90;;;;;;4999855;28;20064;-52
2022/08/03 02:37:29;;;;;;;7.30;1.83;;;19.30;99.90;;;;;;5009795;28;20046;-53
2022/08/03 02:40:00;;;;;;;7.25;1.90;;;19.20;99.90;;;;;;5010403;28;20045;-51
2022/08/03 02:42:27;;;;;;;6.70;2.10;;;19.10;99.90;;;;;;5010315;28;20440;-53
2022/08/03 02:44:55;;;;;;;5.45;1.75;;;19.20;99.90;;;;;;5010276;28;20037;-50
2022/08/03 02:47:22;;;;;;;6.32;1.75;;;19.30;99.90;;;;;;5009793;28;20500;-51
2022/08/03 02:49:49;;;;;;;7.20;1.90;;;19.20;99.90;;;;;;5010557;28;20120;-48
2022/08/03 02:52:17;;;;;;;5.82;1.73;;;19.30;99.90;;;;;;5010238;28;20042;-52
2022/08/03 02:54:45;;;;;;;6.40;1.95;;;19.20;99.90;;;;;;5010474;28;20042;-54
2022/08/03 02:57:12;;;;;;;7.15;1.90;;;19.20;99.90;;;;;;5009317;28;20046;-52
2022/08/03 02:59:39;;;;;;;8.80;2.03;;;19.10;99.90;;;;;;4991492;28;20042;-53
2022/08/03 03:02:05;;;;;;;12.32;2.80;;;19.10;99.90;;;;;;5008783;28;20046;-55
2022/08/03 03:04:31;;;;;;;6.60;2.03;;;19.20;99.90;;;;;;5008978;28;20050;-48
2022/08/03 03:06:58;;;;;;;4.90;1.70;;;19.20;99.90;;;;;;5010072;28;20049;-55
2022/08/03 03:09:24;;;;;;;7.25;1.73;;;19.20;99.90;;;;;;5009984;28;20081;-48
2022/08/03 03:11:52;;;;;;;6.10;1.75;;;19.10;99.90;;;;;;5010165;28;20057;-49
2022/08/03 03:14:19;;;;;;;7.00;2.00;;;19.10;99.90;;;;;;4992497;28;20046;-50
2022/08/03 03:16:47;;;;;;;6.80;2.20;;;19.10;99.90;;;;;;5001219;28;20057;-50
2022/08/03 03:19:16;;;;;;;7.13;1.88;;;19.10;99.90;;;;;;5009566;28;20087;-52
2022/08/03 03:21:43;;;;;;;6.45;1.90;;;19.00;99.90;;;;;;5000615;28;20068;-50
2022/08/03 03:24:09;;;;;;;6.50;1.92;;;19.10;99.90;;;;;;5010144;28;20046;-51
2022/08/03 03:26:36;;;;;;;7.18;1.75;;;19.10;99.90;;;;;;5009998;28;20034;-52
2022/08/03 03:29:02;;;;;;;11.10;2.38;;;19.00;99.90;;;;;;5010053;28;20385;-49
2022/08/03 03:31:28;;;;;;;6.35;1.90;;;19.00;99.90;;;;;;4992421;28;20053;-50
2022/08/03 03:33:57;;;;;;;7.93;2.33;;;19.00;99.90;;;;;;5010163;28;20045;-53
2022/08/03 03:36:23;;;;;;;8.80;2.33;;;19.00;99.90;;;;;;5007618;28;20081;-50
2022/08/03 03:38:49;;;;;;;7.22;1.98;;;18.90;99.90;;;;;;5010083;28;20165;-53
2022/08/03 03:41:15;;;;;;;9.23;2.10;;;18.90;99.90;;;;;;5009801;28;20038;-49
2022/08/03 03:43:41;;;;;;;9.35;2.35;;;18.90;99.90;;;;;;5009797;28;20073;-50
2022/08/03 03:46:06;;;;;;;7.85;2.15;;;18.90;99.90;;;;;;5009873;28;20481;-50
2022/08/03 03:48:32;;;;;;;8.60;2.47;;;18.90;99.90;;;;;;5010438;28;20056;-50
2022/08/03 03:50:59;;;;;;;5.47;2.40;;;18.80;99.90;;;;;;4993873;28;20038;-51
2022/08/03 03:53:24;;;;;;;8.93;2.55;;;18.80;99.90;;;;;;4998782;28;20136;-48
2022/08/03 03:55:52;;;;;;;8.45;1.83;;;18.80;99.90;;;;;;5013121;28;20069;-49
2022/08/03 03:58:19;;;;;;;8.85;2.50;;;18.80;99.90;;;;;;5012001;28;20033;-50
2022/08/03 04:00:45;;;;;;;6.50;2.42;;;18.90;99.90;;;;;;5013098;28;20640;-52
2022/08/03 04:03:11;;;;;;;8.93;2.83;;;18.90;99.90;;;;;;5013011;28;20109;-49
2022/08/03 04:11:08;;;;;;;7.45;2.40;;;18.70;99.90;;;;;;5012886;28;20092;-51
2022/08/03 04:13:39;;;;;;;6.82;1.90;;;18.70;99.90;;;;;;5012817;28;20038;-52
2022/08/03 04:16:07;;;;;;;8.07;2.58;;;18.80;99.90;;;;;;5012396;28;20050;-49
2022/08/03 04:18:37;;;;;;;8.43;2.40;;;18.80;99.90;;;;;;5009453;28;20533;-48
2022/08/03 04:21:06;;;;;;;8.45;2.17;;;18.70;99.90;;;;;;5012038;28;20046;-53
2022/08/03 04:23:34;;;;;;;10.48;2.70;;;18.80;99.90;;;;;;5011668;28;20398;-51
2022/08/03 04:26:02;;;;;;;7.18;2.25;;;18.80;99.90;;;;;;5012448;28;20496;-47
2022/08/03 04:28:31;;;;;;;8.90;2.63;;;18.60;99.90;;;;;;5012618;28;20117;-48
2022/08/03 04:30:58;;;;;;;9.18;2.60;;;18.70;99.90;;;;;;5012132;28;20034;-50
2022/08/03 04:33:26;;;;;;;10.13;2.50;;;18.60;99.90;;;;;;5012502;28;20397;-52
2022/08/03 04:35:56;;;;;;;6.50;2.25;;;18.70;99.90;;;;;;5012678;28;20367;-53
2022/08/03 04:38:24;;;;;;;8.25;2.42;;;18.60;99.90;;;;;;5011837;28;20030;-52
2022/08/03 04:40:51;;;;;;;8.57;2.35;;;18.70;99.90;;;;;;5011086;28;20026;-52
2022/08/03 04:43:18;;;;;;;11.05;2.90;;;18.70;99.90;;;;;;5012455;28;20032;-50
2022/08/03 04:45:46;;;;;;;8.45;3.28;;;18.60;99.90;;;;;;5012441;28;20377;-50
2022/08/03 04:48:14;;;;;;;7.28;2.55;;;18.60;99.90;;;;;;5011910;28;20504;-50
2022/08/03 04:50:40;;;;;;;8.45;3.05;;;18.80;99.90;;;;;;4994414;28;20044;-51
2022/08/03 04:53:06;;;;;;;7.70;2.75;;;18.70;99.90;;;;;;5010941;28;20387;-51
2022/08/03 04:55:33;;;;;;;9.02;2.95;;;18.70;99.90;;;;;;4994357;28;20044;-50
2022/08/03 04:58:01;;;;;;;8.63;3.17;;;18.80;99.90;;;;;;5012078;28;20499;-50
2022/08/03 05:00:27;;;;;;;7.82;2.60;;;18.80;99.90;;;;;;5011601;28;20058;-50
2022/08/03 05:02:54;;;;;;;9.30;3.13;;;18.70;99.90;;;;;;4994222;28;20045;-53
2022/08/03 05:05:20;;;;;;;8.63;3.10;;;18.80;99.90;;;;;;5011892;28;20449;-46
2022/08/03 05:07:46;;;;;;;8.75;2.83;;;18.80;99.90;;;;;;5011881;28;20081;-53
2022/08/03 05:10:13;;;;;;;8.88;3.05;;;18.90;99.90;;;;;;5011681;28;20077;-51
2022/08/03 05:12:39;;;;;;;10.25;3.05;;;18.80;99.90;;;;;;5011888;28;20069;-47
2022/08/03 05:15:06;;;;;;;9.50;3.05;;;18.90;99.90;;;;;;5011855;28;20568;-51
2022/08/03 05:17:35;;;;;;;7.95;3.08;;;19.00;99.90;;;;;;4993405;28;20042;-53
2022/08/03 05:20:03;;;;;;;9.25;3.20;;;19.10;99.90;;;;;;5011686;28;20045;-49
2022/08/03 05:22:28;;;;;;;8.63;3.30;;;19.10;99.90;;;;;;5011397;28;20289;-51
2022/08/03 05:24:54;;;;;;;9.57;3.47;;;19.10;99.90;;;;;;5011703;28;20068;-51
2022/08/03 05:27:19;;;;;;;7.93;3.30;;;19.20;99.90;;;;;;4989699;28;20034;-54
2022/08/03 05:29:46;;;;;;;8.27;2.97;;;19.20;99.90;;;;;;4989293;28;20042;-49
2022/08/03 05:32:12;;;;;;;12.13;3.55;;;19.30;99.90;;;;;;5011444;28;20061;-53
2022/08/03 05:34:38;;;;;;;7.65;3.60;;;19.20;99.90;;;;;;5011289;28;20042;-53
2022/08/03 05:37:04;;;;;;;8.20;3.17;;;19.30;99.90;;;;;;5011435;28;20058;-52
2022/08/03 05:39:30;;;;;;;11.82;3.75;;;19.40;99.90;;;;;;5011256;28;20038;-51
2022/08/03 05:41:55;;;;;;;9.98;3.53;;;19.50;99.90;;;;;;5011128;28;20091;-50
2022/08/03 05:44:24;;;;;;;8.80;3.40;;;19.50;99.90;;;;;;5010969;28;20149;-48
2022/08/03 05:46:50;;;;;;;13.40;3.88;;;19.50;99.90;;;;;;4993174;28;20042;-53
2022/08/03 05:49:16;;;;;;;8.40;3.72;;;19.60;99.90;;;;;;5010789;28;20175;-51
2022/08/03 05:51:41;;;;;;;10.73;3.58;;;19.60;99.90;;;;;;5011093;28;20053;-50
2022/08/03 05:54:07;;;;;;;8.95;4.05;;;19.70;99.90;;;;;;5011028;28;20041;-52
2022/08/03 05:56:33;;;;;;;11.65;3.95;;;19.70;99.90;;;;;;5010897;28;20042;-48
2022/08/03 05:58:58;;;;;;;11.27;3.50;;;19.70;99.90;;;;;;5010889;28;20147;-49
2022/08/03 06:01:24;;;;;;;10.88;3.63;;;19.70;99.90;;;;;;5010576;28;20030;-49
2022/08/03 06:03:50;;;;;;;9.43;3.40;;;19.80;99.90;;;;;;5010808;28;20033;-49
2022/08/03 06:06:17;;;;;;;8.75;3.58;;;19.80;99.90;;;;;;5011096;28;20120;-52
2022/08/03 06:08:44;;;;;;;14.80;4.00;;;20.00;99.90;;;;;;5010989;28;20729;-49
2022/08/03 06:11:10;;;;;;;10.65;3.90;;;19.90;99.90;;;;;;5009448;28;20057;-51
2022/08/03 06:13:36;;;;;;;8.30;3.40;;;20.00;99.90;;;;;;5011112;28;20038;-50
2022/08/03 06:16:02;;;;;;;9.60;3.42;;;20.00;99.90;;;;;;4990111;28;20058;-47
2022/08/03 06:18:28;;;;;;;10.85;3.70;;;20.00;99.90;;;;;;5008899;28;20050;-49
2022/08/03 06:20:54;;;;;;;14.18;3.83;;;20.00;99.90;;;;;;5011304;28;20045;-50
2022/08/03 06:23:20;;;;;;;16.08;4.32;;;20.10;99.90;;;;;;5011388;28;20030;-51
2022/08/03 06:25:45;;;;;;;9.98;3.75;;;20.10;99.90;;;;;;5010795;28;20091;-50
2022/08/03 06:28:17;;;;;;;11.27;3.92;;;20.20;99.90;;;;;;5011169;28;20504;-55
2022/08/03 06:30:43;;;;;;;10.00;3.45;;;20.10;99.90;;;;;;5010881;28;20046;-52
2022/08/03 06:33:09;;;;;;;13.43;3.83;;;20.20;99.90;;;;;;5010952;28;20048;-52
2022/08/03 06:35:34;;;;;;;10.80;3.50;;;20.20;99.90;;;;;;5009764;28;20029;-52
2022/08/03 06:38:01;;;;;;;11.02;3.35;;;20.10;99.90;;;;;;5010945;28;20080;-49
2022/08/03 06:40:30;;;;;;;10.07;3.55;;;20.20;99.90;;;;;;5010912;28;20294;-54
2022/08/03 06:43:00;;;;;;;11.57;3.75;;;20.30;99.90;;;;;;5011179;28;20468;-51
2022/08/03 06:45:27;;;;;;;11.27;3.80;;;20.20;99.90;;;;;;5011141;28;20042;-54
2022/08/03 06:48:08;;;;;;;13.27;3.92;;;20.20;99.90;;;;;;5010670;28;20049;-50
2022/08/03 06:50:35;;;;;;;10.13;3.70;;;20.30;99.90;;;;;;5011021;28;20034;-49
2022/08/03 06:53:02;;;;;;;9.98;4.05;;;20.40;99.90;;;;;;5011498;28;20095;-49
2022/08/03 06:55:28;;;;;;;12.82;4.20;;;20.40;99.90;;;;;;5010514;28;20042;-54
2022/08/03 06:57:55;;;;;;;11.25;3.42;;;20.50;99.90;;;;;;5011090;28;20447;-54
2022/08/03 07:00:21;;;;;;;12.23;3.60;;;20.50;99.90;;;;;;5010605;28;20038;-51
2022/08/03 07:02:47;;;;;;;14.60;3.95;;;20.50;99.90;;;;;;5010598;28;20062;-51
2022/08/03 07:05:12;;;;;;;11.30;4.07;;;20.50;99.90;;;;;;5010672;28;20034;-51
2022/08/03 07:07:38;;;;;;;13.38;3.97;;;20.50;99.90;;;;;;4993240;28;20037;-50
2022/08/03 07:10:05;;;;;;;9.43;3.35;;;20.60;99.90;;;;;;5004546;28;20084;-50
2022/08/03 07:12:32;;;;;;;11.05;3.70;;;20.70;99.90;;;;;;5010941;28;20409;-52
2022/08/03 07:14:59;;;;;;;11.63;3.50;;;20.70;99.90;;;;;;5010430;28;20416;-50
2022/08/03 07:17:25;;;;;;;18.15;4.10;;;20.80;99.90;;;;;;5012139;28;20053;-50
2022/08/03 07:19:51;;;;;;;8.32;3.80;;;20.80;99.90;;;;;;5012110;28;20038;-52
2022/08/03 07:22:16;;;;;;;11.73;3.85;;;20.80;99.90;;;;;;5011388;28;20045;-49
2022/08/03 07:24:42;;;;;;;10.93;3.97;;;20.90;99.90;;;;;;5008773;28;20405;-46
2022/08/03 07:27:08;;;;;;;12.30;4.50;;;20.90;99.90;;;;;;5011099;28;20030;-53
2022/08/03 07:29:35;;;;;;;13.18;4.40;;;20.90;99.90;;;;;;5012282;28;20117;-48
2022/08/03 07:32:02;;;;;;;11.98;4.28;;;21.00;99.90;;;;;;5011884;28;20034;-49
2022/08/03 07:34:27;;;;;;;12.85;3.80;;;20.90;99.90;;;;;;5011707;28;20415;-52
2022/08/03 07:36:53;;;;;;;15.60;4.75;;;21.00;99.90;;;;;;5011856;28;20046;-52
2022/08/03 07:39:19;;;;;;;11.18;4.03;;;21.00;99.90;;;;;;5009305;28;20065;-49
2022/08/03 07:41:45;;;;;;;13.90;3.75;;;21.00;99.90;;;;;;5010799;28;20030;-51
2022/08/03 07:44:11;;;;;;;16.38;4.07;;;21.20;99.90;;;;;;5010763;28;20370;-49
2022/08/03 07:46:37;;;;;;;13.85;3.55;;;21.20;99.90;;;;;;5010704;28;20044;-49
2022/08/03 07:49:02;;;;;;;12.77;4.22;;;21.30;99.90;;;;;;5010164;28;20116;-50
2022/08/03 07:51:28;;;;;;;14.57;3.67;;;21.40;99.90;;;;;;5009203;28;20042;-50
2022/08/03 07:53:56;;;;;;;14.70;3.53;;;21.40;99.90;;;;;;5010156;28;20568;-51
2022/08/03 07:56:23;;;;;;;12.10;3.53;;;21.50;99.90;;;;;;5010914;28;20064;-52
2022/08/03 07:58:50;;;;;;;11.93;3.80;;;21.50;99.90;;;;;;5008668;28;20796;-53
2022/08/03 08:01:18;;;;;;;13.85;3.85;;;21.70;99.90;;;;;;5011558;28;20053;-51
2022/08/03 08:03:47;;;;;;;12.93;3.92;;;21.70;99.90;;;;;;5011621;28;20116;-54
2022/08/03 08:06:13;;;;;;;12.63;3.47;;;21.70;99.90;;;;;;5011113;28;20045;-52
2022/08/03 08:08:40;;;;;;;9.85;3.60;;;21.80;99.90;;;;;;5011241;28;20037;-50
2022/08/03 08:11:06;;;;;;;16.90;3.90;;;21.90;99.90;;;;;;4993187;28;20234;-51
2022/08/03 08:13:32;;;;;;;12.73;4.32;;;21.90;99.90;;;;;;5010235;28;20037;-50
2022/08/03 08:15:57;;;;;;;11.63;3.80;;;22.00;99.90;;;;;;5009939;28;20060;-48
2022/08/03 08:18:23;;;;;;;13.05;4.25;;;22.00;99.90;;;;;;5009746;28;20129;-52
2022/08/03 08:20:50;;;;;;;10.80;3.25;;;22.10;99.90;;;;;;5010270;28;20504;-53
2022/08/03 08:23:21;;;;;;;9.43;3.00;;;22.30;99.90;;;;;;5008394;28;20029;-55
2022/08/03 08:25:48;;;;;;;10.15;3.22;;;22.40;99.90;;;;;;5010005;28;20397;-53
2022/08/03 08:28:16;;;;;;;14.75;3.20;;;22.60;99.90;;;;;;5009790;28;20405;-51
2022/08/03 08:30:42;;;;;;;9.00;2.88;;;22.60;99.90;;;;;;5009452;28;20038;-53
2022/08/03 08:33:08;;;;;;;11.45;3.55;;;22.60;99.90;;;;;;5009086;28;20336;-52
2022/08/03 08:35:33;;;;;;;7.32;3.17;;;22.60;99.90;;;;;;5009339;28;20108;-54
2022/08/03 08:38:00;;;;;;;12.95;3.38;;;22.70;99.90;;;;;;4992126;28;20077;-50
2022/08/03 08:40:26;;;;;;;10.00;3.47;;;22.80;99.90;;;;;;5009030;28;20033;-54
2022/08/03 08:42:52;;;;;;;12.40;3.40;;;22.90;99.90;;;;;;5005502;28;20062;-54
2022/08/03 08:45:19;;;;;;;12.65;3.35;;;23.10;99.90;;;;;;5005772;28;20445;-51
2022/08/03 08:47:46;;;;;;;10.88;2.90;;;23.00;99.90;;;;;;5009876;28;20046;-54
2022/08/03 08:50:16;;;;;;;11.32;3.35;;;23.10;99.90;;;;;;5008858;28;20045;-49
2022/08/03 08:52:44;;;;;;;9.85;3.35;;;23.20;99.90;;;;;;5009198;28;20091;-48
2022/08/03 08:55:15;;;;;;;8.18;3.00;;;23.30;99.90;;;;;;5008852;28;20038;-50
2022/08/03 08:58:09;;;;;;;10.80;3.45;;;23.50;99.90;;;;;;5009987;28;20421;-52
2022/08/03 09:00:34;;;;;;;13.07;3.50;;;23.50;99.90;;;;;;5006093;28;20458;-52
2022/08/03 09:03:00;;;;;;;10.57;2.92;;;23.60;99.90;;;;;;5010237;28;20132;-54
2022/08/03 09:05:26;;;;;;;10.63;3.10;;;23.90;99.90;;;;;;5009087;28;20499;-49
2022/08/03 09:07:52;;;;;;;11.50;2.90;;;24.00;99.90;;;;;;5010878;28;20077;-54
2022/08/03 09:10:20;;;;;;;11.23;2.70;;;24.10;99.90;;;;;;5009345;28;20117;-50
2022/08/03 09:12:48;;;;;;;12.13;2.70;;;24.10;99.90;;;;;;5009852;28;20077;-50
2022/08/03 09:15:26;;;;;;;10.85;3.30;;;24.30;99.90;;;;;;5007853;28;20065;-52
2022/08/03 09:17:55;;;;;;;11.70;3.42;;;24.50;99.90;;;;;;5007678;28;20077;-53
2022/08/03 09:20:21;;;;;;;14.88;3.53;;;24.60;99.90;;;;;;5008408;28;20041;-53
2022/08/03 09:23:03;;;;;;;11.45;2.90;;;24.80;99.90;;;;;;5008988;28;20376;-50
2022/08/03 09:25:34;;;;;;;10.15;2.63;;;24.90;99.90;;;;;;5009243;28;20120;-49
2022/08/03 09:28:08;;;;;;;15.27;3.20;;;25.10;99.90;;;;;;5009239;28;20396;-54
2022/08/03 09:30:34;;;;;;;;;;;25.20;99.90;;;;;;5009088;28;20053;-50
2022/08/03 09:33:06;;;;;;;11.23;2.55;;;25.20;99.90;;;;;;5009488;28;19952;-49
2022/08/03 09:35:32;;;;;;;11.13;2.88;;;25.40;99.90;;;;;;5008777;28;20050;-52
2022/08/03 09:38:09;;;;;;;10.27;2.72;;;25.60;99.90;;;;;;5008859;28;20038;-51
2022/08/03 09:40:36;;;;;;;9.95;2.90;;;25.80;99.90;;;;;;5007662;28;20046;-49
2022/08/03 09:43:01;;;;;;;13.60;2.88;;;26.00;99.90;;;;;;5004259;28;20081;-54
2022/08/03 09:45:28;;;;;;;9.43;2.58;;;26.10;99.90;;;;;;5001471;28;21071;-50
2022/08/03 09:47:56;;;;;;;9.27;2.85;;;26.10;99.90;;;;;;5007214;28;20056;-52
2022/08/03 09:50:22;;;;;;;14.40;2.67;;;26.10;99.90;;;;;;5008925;28;20042;-54
2022/08/03 09:52:50;;;;;;;11.18;3.05;;;26.20;99.90;;;;;;5008991;28;20104;-50
2022/08/03 09:55:19;;;;;;;13.85;2.75;;;26.20;99.90;;;;;;5006328;28;20074;-56
2022/08/03 09:57:45;;;;;;;11.02;2.42;;;26.40;99.90;;;;;;5008065;28;20119;-51
2022/08/03 10:00:15;;;;;;;11.30;2.58;;;26.20;99.90;;;;;;5007527;28;20038;-50
2022/08/03 10:02:42;;;;;;;9.55;2.42;;;26.40;99.90;;;;;;5009285;28;20041;-52
2022/08/03 10:05:11;;;;;;;17.80;2.72;;;26.60;99.90;;;;;;5008187;28;20033;-52
2022/08/03 10:07:45;;;;;;;12.52;2.95;;;26.60;99.90;;;;;;5010519;28;20503;-54
2022/08/03 10:10:14;;;;;;;16.38;2.50;;;26.50;99.90;;;;;;5011092;28;20037;-49
2022/08/03 10:12:41;;;;;;;13.70;3.05;;;26.70;99.90;;;;;;5010258;28;20061;-51
2022/08/03 10:15:09;;;;;;;12.77;2.83;;;26.60;99.90;;;;;;5008508;28;20480;-52
2022/08/03 10:17:35;;;;;;;12.90;2.45;;;26.80;99.90;;;;;;5011489;28;20100;-53
2022/08/03 10:20:02;;;;;;;11.50;2.60;;;26.90;99.90;;;;;;5010827;28;20034;-51
2022/08/03 10:22:33;;;;;;;13.38;2.47;;;26.90;99.90;;;;;;4993583;28;20042;-52
2022/08/03 10:25:02;;;;;;;12.00;3.05;;;26.80;99.90;;;;;;5010521;28;20038;-51
2022/08/03 10:27:33;;;;;;;15.23;2.72;;;26.90;99.90;;;;;;5009826;28;20026;-50
2022/08/03 10:30:05;;;;;;;10.77;2.60;;;27.00;99.90;;;;;;5011313;28;20038;-52
2022/08/03 10:32:38;;;;;;;14.13;3.22;;;27.10;99.90;;;;;;5011105;28;20042;-53
2022/08/03 10:35:11;;;;;;;12.23;2.75;;;27.30;99.90;;;;;;5010890;28;20046;-51
2022/08/03 10:37:42;;;;;;;12.80;2.83;;;27.20;99.90;;;;;;5011080;28;20409;-53
2022/08/03 10:40:12;;;;;;;9.25;2.70;;;27.40;99.90;;;;;;5011000;28;20057;-51
2022/08/03 10:42:42;;;;;;;12.68;2.83;;;27.40;99.90;;;;;;5011045;28;20037;-52
2022/08/03 10:45:16;;;;;;;15.75;3.00;;;27.40;99.90;;;;;;5008168;28;20030;-55
2022/08/03 10:47:44;;;;;;;10.07;2.95;;;27.40;99.90;;;;;;5006805;28;20358;-50
2022/08/03 10:50:11;;;;;;;10.73;2.60;;;27.70;99.90;;;;;;4990764;28;20077;-49
2022/08/03 10:53:05;;;;;;;12.70;2.60;;;27.80;99.90;;;;;;5008216;28;20042;-51
2022/08/03 10:58:37;;;;;;;12.38;2.95;;;27.80;99.90;;;;;;5012422;28;19924;-55
2022/08/03 11:01:04;;;;;;;12.20;2.40;;;27.80;99.90;;;;;;5013004;28;20468;-49
2022/08/03 11:03:31;;;;;;;13.15;2.45;;;28.00;99.90;;;;;;5012037;28;20116;-50
2022/08/03 11:06:20;;;;;;;11.15;2.47;;;28.00;99.90;;;;;;4994858;28;20136;-52
2022/08/03 11:08:47;;;;;;;11.80;2.55;;;28.30;99.90;;;;;;5011447;28;20128;-54
2022/08/03 11:11:16;;;;;;;11.27;2.40;;;28.20;99.90;;;;;;5011605;28;20037;-51
2022/08/03 11:14:02;;;;;;;15.25;3.00;;;28.30;99.90;;;;;;5011199;28;20508;-54
2022/08/03 11:16:29;;;;;;;14.15;2.47;;;28.30;99.90;;;;;;5011778;28;20054;-54
2022/08/03 11:18:59;;;;;;;12.07;2.83;;;28.40;99.90;;;;;;5013061;28;20081;-54
2022/08/03 11:21:49;;;;;;;12.98;2.58;;;28.40;99.90;;;;;;4995463;28;20038;-52
2022/08/03 11:24:40;;;;;;;13.10;3.00;;;28.50;99.90;;;;;;5014770;28;20072;-53
2022/08/03 11:27:17;;;;;;;10.73;2.40;;;28.60;99.90;;;;;;5014626;28;20049;-49
2022/08/03 11:30:09;;;;;;;12.68;3.10;;;28.40;99.90;;;;;;5014556;28;20497;-51
2022/08/03 11:32:42;;;;;;;10.30;2.33;;;28.70;99.90;;;;;;5014492;28;20077;-52
2022/08/03 11:35:22;;;;;;;10.65;2.45;;;29.00;99.90;;;;;;5014078;28;20096;-54
2022/08/03 11:37:57;;;;;;;11.35;2.60;;;28.80;99.90;;;;;;5013240;28;20096;-50
2022/08/03 11:40:33;;;;;;;12.25;2.80;;;28.90;99.90;;;;;;5014214;28;20121;-55
2022/08/03 11:42:59;;;;;;;10.05;2.55;;;28.90;99.90;;;;;;5014347;28;20046;-54
2022/08/03 11:45:25;;;;;;;10.45;2.20;;;28.90;99.90;;;;;;5014270;28;20500;-54
2022/08/03 11:47:53;;;;;;;10.45;1.90;;;29.20;99.90;;;;;;5013903;28;20038;-53
2022/08/03 11:50:20;;;;;;;11.30;2.10;;;29.30;99.90;;;;;;5013185;28;20117;-53
2022/08/03 11:52:46;;;;;;;14.18;2.30;;;29.40;99.10;;;;;;5014126;28;20579;-54
2022/08/03 11:55:13;;;;;;;6.45;1.70;;;29.50;98.30;;;;;;5013951;28;20095;-49
2022/08/03 11:57:39;;;;;;;8.88;2.13;;;29.40;97.30;;;;;;5013554;28;20120;-53
2022/08/03 12:00:30;;;;;;;11.52;2.60;;;29.50;96.90;;;;;;5013745;28;20490;-53
2022/08/03 12:03:08;;;;;;;13.38;2.13;;;29.70;97.50;;;;;;5013821;28;20042;-49
2022/08/03 12:06:01;;;;;;;11.45;1.88;;;29.90;98.20;;;;;;5013012;28;20526;-47
2022/08/03 12:08:26;;;;;;;8.75;2.00;;;30.00;98.40;;;;;;5010250;28;20050;-52
2022/08/03 12:10:53;;;;;;;10.27;2.50;;;30.00;97.00;;;;;;5013629;28;20042;-48
2022/08/03 12:13:20;;;;;;;9.55;2.03;;;29.90;97.60;;;;;;4994646;28;20046;-51
2022/08/03 12:15:51;;;;;;;8.23;2.10;;;29.90;98.10;;;;;;5013168;28;20513;-53
2022/08/03 12:18:19;;;;;;;13.15;2.50;;;30.20;98.40;;;;;;5011362;28;20037;-50
2022/08/03 12:20:46;;;;;;;9.30;2.10;;;30.10;99.00;;;;;;5013594;28;20053;-54
2022/08/03 12:23:12;;;;;;;12.07;2.08;;;30.30;97.30;;;;;;5012533;28;20044;-49
2022/08/03 12:25:39;;;;;;;10.02;2.40;;;30.30;97.30;;;;;;5013020;28;20030;-52
2022/08/03 12:28:17;;;;;;;10.60;2.25;;;30.30;97.10;;;;;;5013257;28;20037;-50
2022/08/03 12:30:45;;;;;;;8.50;2.10;;;30.50;96.70;;;;;;5013314;28;20069;-53
2022/08/03 12:33:16;;;;;;;12.50;2.35;;;30.60;96.80;;;;;;5001100;28;20113;-56
2022/08/03 12:35:42;;;;;;;7.75;2.17;;;30.80;97.20;;;;;;5011170;28;20040;-50
2022/08/03 12:38:09;;;;;;;7.55;1.95;;;30.50;96.30;;;;;;5010677;28;20117;-50
2022/08/03 12:40:34;;;;;;;9.13;1.98;;;30.70;97.20;;;;;;4992192;28;20060;-52
2022/08/03 12:43:00;;;;;;;11.27;2.17;;;30.80;96.10;;;;;;4991564;28;20501;-50
2022/08/03 12:45:29;;;;;;;12.00;2.55;;;31.00;95.80;;;;;;5009186;28;20575;-50
2022/08/03 12:48:00;;;;;;;12.27;2.20;;;30.80;96.10;;;;;;5011082;28;20477;-54
2022/08/03 12:50:30;;;;;;;9.35;2.10;;;31.00;96.20;;;;;;5010640;28;20042;-51
2022/08/03 12:52:57;;;;;;;9.55;2.50;;;31.00;96.60;;;;;;5009608;28;20046;-54
2022/08/03 12:55:26;;;;;;;9.52;2.40;;;31.10;96.20;;;;;;4995750;28;20046;-51
2022/08/03 12:57:52;;;;;;;13.25;2.97;;;31.10;95.60;;;;;;5007873;28;20034;-49
2022/08/03 13:00:18;;;;;;;13.60;2.38;;;31.20;95.60;;;;;;5009875;28;20095;-51